Terminal Aerodrome Forecast
Issued by NWS

Home | Current Version | Previous Version | Text Only | Print | Product List | Glossary On
Versions: 1 2 3 4 5 6 7 8 9 10 11 12 13 14 15 16 17 18 19 20 21 22 23 24 25 26 27 28 29 30 31 32 33 34 35 36 37 38 39 40
000
FTUS43 KGLD 281720
TAFMCK
TAF
KMCK 281720Z 2818/2918 14008KT P6SM BKN020
     FM281900 15011KT P6SM VCSH SCT015 SCT025
     FM282300 10010KT P6SM VCTS SCT050CB SCT300
      TEMPO 2900/2904 VRB25G35KT 3SM +TSRA BR
     FM290600 29006KT P6SM VCSH BKN080
     FM291300 33012KT P6SM SCT025 SCT250=

USA.gov is the U.S. government's official web portal to all federal, state and local government web resources and services.